sensor_id;sensor_type;location;lat;lon;timestamp;noise_LAeq;noise_LA_min;noise_LA_max;noise_LA01;noise_LA95
73342;Laerm;61578;52.002;5.468;2023-06-10T00:00:01;40.30;37.52;43.50;;
73342;Laerm;61578;52.002;5.468;2023-06-10T00:00:34;40.29;36.61;43.95;;
73342;Laerm;61578;52.002;5.468;2023-06-10T00:01:04;40.32;37.11;43.97;;
73342;Laerm;61578;52.002;5.468;2023-06-10T00:01:35;40.21;37.48;43.54;;
73342;Laerm;61578;52.002;5.468;2023-06-10T00:02:07;40.42;37.32;43.59;;
73342;Laerm;61578;52.002;5.468;2023-06-10T00:02:38;40.26;36.71;43.84;;
73342;Laerm;61578;52.002;5.468;2023-06-10T00:03:10;40.40;37.43;44.00;;
73342;Laerm;61578;52.002;5.468;2023-06-10T00:03:41;40.68;37.74;45.57;;
73342;Laerm;61578;52.002;5.468;2023-06-10T00:04:11;40.37;37.33;44.36;;
73342;Laerm;61578;52.002;5.468;2023-06-10T00:04:42;40.22;36.52;43.96;;
73342;Laerm;61578;52.002;5.468;2023-06-10T00:05:13;40.56;37.26;44.04;;
73342;Laerm;61578;52.002;5.468;2023-06-10T00:05:45;40.45;36.95;44.06;;
73342;Laerm;61578;52.002;5.468;2023-06-10T00:06:16;40.72;37.32;44.53;;
73342;Laerm;61578;52.002;5.468;2023-06-10T00:06:46;40.39;37.56;43.70;;
73342;Laerm;61578;52.002;5.468;2023-06-10T00:07:20;40.37;37.24;44.17;;
73342;Laerm;61578;52.002;5.468;2023-06-10T00:07:50;40.37;37.53;48.49;;
73342;Laerm;61578;52.002;5.468;2023-06-10T00:08:21;40.54;37.61;44.36;;
73342;Laerm;61578;52.002;5.468;2023-06-10T00:08:52;40.21;37.01;43.82;;
73342;Laerm;61578;52.002;5.468;2023-06-10T00:09:24;40.34;37.31;43.76;;
73342;Laerm;61578;52.002;5.468;2023-06-10T00:09:55;40.89;37.46;45.50;;
73342;Laerm;61578;52.002;5.468;2023-06-10T00:10:25;40.67;37.18;44.66;;
73342;Laerm;61578;52.002;5.468;2023-06-10T00:10:56;40.29;36.65;43.60;;
73342;Laerm;61578;52.002;5.468;2023-06-10T00:11:27;40.44;37.21;43.89;;
73342;Laerm;61578;52.002;5.468;2023-06-10T00:11:57;40.38;36.99;43.93;;
73342;Laerm;61578;52.002;5.468;2023-06-10T00:12:30;40.70;37.59;44.40;;
73342;Laerm;61578;52.002;5.468;2023-06-10T00:13:06;40.26;36.88;44.05;;
73342;Laerm;61578;52.002;5.468;2023-06-10T00:13:39;40.59;37.34;44.17;;
73342;Laerm;61578;52.002;5.468;2023-06-10T00:14:10;40.55;37.40;43.79;;
73342;Laerm;61578;52.002;5.468;2023-06-10T00:14:41;40.32;37.13;43.89;;
73342;Laerm;61578;52.002;5.468;2023-06-10T00:15:12;40.79;37.50;43.96;;
73342;Laerm;61578;52.002;5.468;2023-06-10T00:15:43;40.26;36.52;44.67;;
73342;Laerm;61578;52.002;5.468;2023-06-10T00:16:13;40.70;37.39;44.21;;
73342;Laerm;61578;52.002;5.468;2023-06-10T00:16:44;40.38;37.36;44.75;;
73342;Laerm;61578;52.002;5.468;2023-06-10T00:17:15;40.31;37.16;43.48;;
73342;Laerm;61578;52.002;5.468;2023-06-10T00:17:46;40.16;36.56;43.11;;
73342;Laerm;61578;52.002;5.468;2023-06-10T00:18:16;40.26;37.23;43.77;;
73342;Laerm;61578;52.002;5.468;2023-06-10T00:18:48;40.32;36.92;43.58;;
73342;Laerm;61578;52.002;5.468;2023-06-10T00:19:19;40.38;37.16;44.12;;
73342;Laerm;61578;52.002;5.468;2023-06-10T00:19:50;40.34;36.80;43.64;;
73342;Laerm;61578;52.002;5.468;2023-06-10T00:20:21;40.40;37.29;43.55;;
73342;Laerm;61578;52.002;5.468;2023-06-10T00:20:54;40.31;37.45;43.77;;
73342;Laerm;61578;52.002;5.468;2023-06-10T00:21:25;40.16;36.56;43.65;;
73342;Laerm;61578;52.002;5.468;2023-06-10T00:21:57;40.59;37.56;44.05;;
73342;Laerm;61578;52.002;5.468;2023-06-10T00:22:27;40.34;37.45;43.76;;
73342;Laerm;61578;52.002;5.468;2023-06-10T00:23:01;40.31;36.89;44.07;;
73342;Laerm;61578;52.002;5.468;2023-06-10T00:23:31;40.27;36.97;44.40;;
73342;Laerm;61578;52.002;5.468;2023-06-10T00:24:09;40.33;37.33;43.84;;
73342;Laerm;61578;52.002;5.468;2023-06-10T00:24:44;40.35;37.38;44.25;;
73342;Laerm;61578;52.002;5.468;2023-06-10T00:25:15;40.35;37.30;43.37;;
73342;Laerm;61578;52.002;5.468;2023-06-10T00:25:46;40.19;36.90;43.45;;
73342;Laerm;61578;52.002;5.468;2023-06-10T00:26:17;40.42;37.62;44.56;;
73342;Laerm;61578;52.002;5.468;2023-06-10T00:26:48;40.24;37.48;43.50;;
73342;Laerm;61578;52.002;5.468;2023-06-10T00:27:19;40.31;37.25;44.98;;
73342;Laerm;61578;52.002;5.468;2023-06-10T00:27:50;40.18;37.18;43.89;;
73342;Laerm;61578;52.002;5.468;2023-06-10T00:28:20;40.20;37.16;44.01;;
73342;Laerm;61578;52.002;5.468;2023-06-10T00:28:51;40.24;37.19;44.27;;
73342;Laerm;61578;52.002;5.468;2023-06-10T00:29:22;40.59;37.37;44.06;;
73342;Laerm;61578;52.002;5.468;2023-06-10T00:29:53;40.48;37.19;43.98;;
73342;Laerm;61578;52.002;5.468;2023-06-10T00:30:24;40.58;37.26;43.90;;
73342;Laerm;61578;52.002;5.468;2023-06-10T00:30:54;40.29;35.66;44.32;;
73342;Laerm;61578;52.002;5.468;2023-06-10T00:31:25;40.43;37.30;44.19;;
73342;Laerm;61578;52.002;5.468;2023-06-10T00:31:56;40.43;37.27;44.24;;
73342;Laerm;61578;52.002;5.468;2023-06-10T00:32:27;40.24;36.96;44.07;;
73342;Laerm;61578;52.002;5.468;2023-06-10T00:32:58;40.55;37.61;43.78;;
73342;Laerm;61578;52.002;5.468;2023-06-10T00:33:29;40.61;37.46;43.51;;
73342;Laerm;61578;52.002;5.468;2023-06-10T00:34:01;40.32;37.68;43.68;;
73342;Laerm;61578;52.002;5.468;2023-06-10T00:34:32;40.51;37.43;43.77;;
73342;Laerm;61578;52.002;5.468;2023-06-10T00:35:04;40.29;37.27;44.25;;
73342;Laerm;61578;52.002;5.468;2023-06-10T00:35:35;40.17;36.88;43.65;;
73342;Laerm;61578;52.002;5.468;2023-06-10T00:36:06;40.36;36.94;46.80;;
73342;Laerm;61578;52.002;5.468;2023-06-10T00:36:36;41.36;37.29;50.25;;
73342;Laerm;61578;52.002;5.468;2023-06-10T00:37:07;41.10;37.62;51.37;;
73342;Laerm;61578;52.002;5.468;2023-06-10T00:37:38;40.74;37.03;49.13;;
73342;Laerm;61578;52.002;5.468;2023-06-10T00:38:08;40.58;36.90;49.05;;
73342;Laerm;61578;52.002;5.468;2023-06-10T00:38:39;40.73;37.36;50.79;;
73342;Laerm;61578;52.002;5.468;2023-06-10T00:39:13;40.65;37.60;48.15;;
73342;Laerm;61578;52.002;5.468;2023-06-10T00:39:43;41.11;37.18;51.79;;
73342;Laerm;61578;52.002;5.468;2023-06-10T00:40:14;41.33;36.38;50.41;;
73342;Laerm;61578;52.002;5.468;2023-06-10T00:40:45;40.75;37.22;50.30;;
73342;Laerm;61578;52.002;5.468;2023-06-10T00:41:16;40.78;37.34;49.45;;
73342;Laerm;61578;52.002;5.468;2023-06-10T00:41:46;40.81;37.64;48.89;;
73342;Laerm;61578;52.002;5.468;2023-06-10T00:42:17;40.50;36.71;45.60;;
73342;Laerm;61578;52.002;5.468;2023-06-10T00:42:48;40.46;37.15;45.65;;
73342;Laerm;61578;52.002;5.468;2023-06-10T00:43:18;40.27;37.01;43.86;;
73342;Laerm;61578;52.002;5.468;2023-06-10T00:43:49;40.19;36.82;44.16;;
73342;Laerm;61578;52.002;5.468;2023-06-10T00:44:20;40.51;37.16;43.64;;
73342;Laerm;61578;52.002;5.468;2023-06-10T00:44:51;40.40;37.28;44.12;;
73342;Laerm;61578;52.002;5.468;2023-06-10T00:45:22;40.26;37.16;43.60;;
73342;Laerm;61578;52.002;5.468;2023-06-10T00:45:53;40.46;37.54;44.26;;
73342;Laerm;61578;52.002;5.468;2023-06-10T00:46:25;40.21;37.41;43.98;;
73342;Laerm;61578;52.002;5.468;2023-06-10T00:46:57;40.22;37.01;43.92;;
73342;Laerm;61578;52.002;5.468;2023-06-10T00:47:29;40.21;37.38;44.00;;
73342;Laerm;61578;52.002;5.468;2023-06-10T00:48:02;40.28;36.82;43.68;;
73342;Laerm;61578;52.002;5.468;2023-06-10T00:48:34;40.41;36.88;43.47;;
73342;Laerm;61578;52.002;5.468;2023-06-10T00:49:05;40.39;37.47;43.53;;
73342;Laerm;61578;52.002;5.468;2023-06-10T00:49:36;40.27;37.14;43.79;;
73342;Laerm;61578;52.002;5.468;2023-06-10T00:50:07;40.26;37.00;44.87;;
73342;Laerm;61578;52.002;5.468;2023-06-10T00:50:38;40.28;37.18;44.22;;
73342;Laerm;61578;52.002;5.468;2023-06-10T00:51:12;40.26;37.32;43.64;;
73342;Laerm;61578;52.002;5.468;2023-06-10T00:51:44;40.45;37.27;43.93;;
73342;Laerm;61578;52.002;5.468;2023-06-10T00:52:17;40.30;37.19;43.66;;
73342;Laerm;61578;52.002;5.468;2023-06-10T00:52:49;40.28;37.18;44.07;;
73342;Laerm;61578;52.002;5.468;2023-06-10T00:53:22;40.39;37.45;44.64;;
73342;Laerm;61578;52.002;5.468;2023-06-10T00:53:54;40.33;37.37;44.92;;
73342;Laerm;61578;52.002;5.468;2023-06-10T00:54:25;40.17;37.24;43.76;;
73342;Laerm;61578;52.002;5.468;2023-06-10T00:54:56;40.21;37.34;43.95;;
73342;Laerm;61578;52.002;5.468;2023-06-10T00:55:27;40.42;37.35;43.72;;
73342;Laerm;61578;52.002;5.468;2023-06-10T00:55:59;40.39;37.16;44.46;;
73342;Laerm;61578;52.002;5.468;2023-06-10T00:56:29;40.42;37.24;43.81;;
73342;Laerm;61578;52.002;5.468;2023-06-10T00:57:01;40.25;36.68;44.23;;
73342;Laerm;61578;52.002;5.468;2023-06-10T00:57:32;40.35;37.50;44.24;;
73342;Laerm;61578;52.002;5.468;2023-06-10T00:58:04;40.31;36.95;44.22;;
73342;Laerm;61578;52.002;5.468;2023-06-10T00:58:36;40.28;37.13;43.64;;
73342;Laerm;61578;52.002;5.468;2023-06-10T00:59:07;40.19;36.88;43.99;;
73342;Laerm;61578;52.002;5.468;2023-06-10T00:59:41;40.32;36.94;44.22;;
73342;Laerm;61578;52.002;5.468;2023-06-10T01:00:14;40.27;36.93;44.19;;
73342;Laerm;61578;52.002;5.468;2023-06-10T01:00:45;40.44;37.13;43.62;;
73342;Laerm;61578;52.002;5.468;2023-06-10T01:01:17;40.30;37.12;44.07;;
73342;Laerm;61578;52.002;5.468;2023-06-10T01:01:48;40.37;37.15;43.69;;
73342;Laerm;61578;52.002;5.468;2023-06-10T01:02:19;40.24;37.35;44.10;;
73342;Laerm;61578;52.002;5.468;2023-06-10T01:02:50;40.35;36.99;43.96;;
73342;Laerm;61578;52.002;5.468;2023-06-10T01:03:22;40.24;36.89;43.59;;
73342;Laerm;61578;52.002;5.468;2023-06-10T01:03:53;40.50;37.68;45.05;;
73342;Laerm;61578;52.002;5.468;2023-06-10T01:04:24;40.34;37.40;44.37;;
73342;Laerm;61578;52.002;5.468;2023-06-10T01:04:55;40.24;37.03;43.54;;
73342;Laerm;61578;52.002;5.468;2023-06-10T01:05:26;40.22;37.17;43.87;;
73342;Laerm;61578;52.002;5.468;2023-06-10T01:06:08;40.31;36.40;43.72;;
73342;Laerm;61578;52.002;5.468;2023-06-10T01:07:00;40.19;36.74;43.81;;
73342;Laerm;61578;52.002;5.468;2023-06-10T01:08:01;40.34;36.95;44.19;;
73342;Laerm;61578;52.002;5.468;2023-06-10T01:10:08;40.20;36.86;44.12;;
73342;Laerm;61578;52.002;5.468;2023-06-10T01:10:50;40.27;36.46;43.67;;
73342;Laerm;61578;52.002;5.468;2023-06-10T01:11:36;40.41;36.92;44.94;;
73342;Laerm;61578;52.002;5.468;2023-06-10T01:12:32;40.50;37.16;43.94;;
73342;Laerm;61578;52.002;5.468;2023-06-10T01:13:11;40.29;37.30;43.69;;
73342;Laerm;61578;52.002;5.468;2023-06-10T01:13:46;40.29;37.02;44.21;;
73342;Laerm;61578;52.002;5.468;2023-06-10T01:14:22;40.39;37.24;43.55;;
73342;Laerm;61578;52.002;5.468;2023-06-10T01:14:55;40.14;37.19;43.88;;
73342;Laerm;61578;52.002;5.468;2023-06-10T01:15:26;40.07;37.22;45.10;;
73342;Laerm;61578;52.002;5.468;2023-06-10T01:15:57;40.16;37.23;43.73;;
73342;Laerm;61578;52.002;5.468;2023-06-10T01:16:28;40.32;37.34;44.30;;
73342;Laerm;61578;52.002;5.468;2023-06-10T01:17:00;40.13;37.16;43.77;;
73342;Laerm;61578;52.002;5.468;2023-06-10T01:17:31;40.49;37.25;43.67;;
73342;Laerm;61578;52.002;5.468;2023-06-10T01:18:06;40.12;37.31;44.03;;
73342;Laerm;61578;52.002;5.468;2023-06-10T01:18:40;40.25;36.58;43.92;;
73342;Laerm;61578;52.002;5.468;2023-06-10T01:19:11;40.41;37.36;44.46;;
73342;Laerm;61578;52.002;5.468;2023-06-10T01:19:44;40.32;36.00;44.05;;
73342;Laerm;61578;52.002;5.468;2023-06-10T01:20:14;40.08;37.24;43.40;;
73342;Laerm;61578;52.002;5.468;2023-06-10T01:20:45;40.20;36.76;44.51;;
73342;Laerm;61578;52.002;5.468;2023-06-10T01:21:21;40.18;36.21;45.03;;
73342;Laerm;61578;52.002;5.468;2023-06-10T01:21:54;40.18;36.96;43.47;;
73342;Laerm;61578;52.002;5.468;2023-06-10T01:22:27;40.17;37.07;43.33;;
73342;Laerm;61578;52.002;5.468;2023-06-10T01:23:00;41.00;37.25;45.35;;
73342;Laerm;61578;52.002;5.468;2023-06-10T01:23:31;42.66;38.93;47.42;;
73342;Laerm;61578;52.002;5.468;2023-06-10T01:24:02;41.22;37.77;45.07;;
73342;Laerm;61578;52.002;5.468;2023-06-10T01:24:33;40.31;36.89;44.48;;
73342;Laerm;61578;52.002;5.468;2023-06-10T01:25:05;40.12;36.85;43.66;;
73342;Laerm;61578;52.002;5.468;2023-06-10T01:25:41;40.17;36.95;43.44;;
73342;Laerm;61578;52.002;5.468;2023-06-10T01:26:16;40.16;36.93;43.30;;
73342;Laerm;61578;52.002;5.468;2023-06-10T01:26:51;40.18;37.22;44.15;;
73342;Laerm;61578;52.002;5.468;2023-06-10T01:27:30;40.33;36.44;44.24;;
73342;Laerm;61578;52.002;5.468;2023-06-10T01:28:07;40.28;37.00;44.15;;
73342;Laerm;61578;52.002;5.468;2023-06-10T01:29:00;40.44;36.68;44.19;;
73342;Laerm;61578;52.002;5.468;2023-06-10T01:29:45;40.16;36.65;44.26;;
73342;Laerm;61578;52.002;5.468;2023-06-10T01:30:27;40.45;37.14;43.96;;
73342;Laerm;61578;52.002;5.468;2023-06-10T01:31:30;40.32;36.97;44.15;;
73342;Laerm;61578;52.002;5.468;2023-06-10T01:32:17;40.17;35.89;44.11;;
73342;Laerm;61578;52.002;5.468;2023-06-10T01:32:52;40.15;37.21;43.76;;
73342;Laerm;61578;52.002;5.468;2023-06-10T01:33:36;40.17;36.49;43.61;;
73342;Laerm;61578;52.002;5.468;2023-06-10T01:34:13;40.07;37.40;43.91;;
73342;Laerm;61578;52.002;5.468;2023-06-10T01:34:45;40.11;36.90;43.25;;
73342;Laerm;61578;52.002;5.468;2023-06-10T01:35:21;40.37;36.87;43.99;;
73342;Laerm;61578;52.002;5.468;2023-06-10T01:35:58;40.18;37.14;43.40;;
73342;Laerm;61578;52.002;5.468;2023-06-10T01:36:33;40.48;36.98;43.97;;
73342;Laerm;61578;52.002;5.468;2023-06-10T01:37:06;40.31;36.81;45.20;;
73342;Laerm;61578;52.002;5.468;2023-06-10T01:37:39;40.38;37.58;43.90;;
73342;Laerm;61578;52.002;5.468;2023-06-10T01:38:15;40.35;37.27;44.16;;
73342;Laerm;61578;52.002;5.468;2023-06-10T01:38:49;40.45;36.63;44.70;;
73342;Laerm;61578;52.002;5.468;2023-06-10T01:39:24;40.31;36.68;44.47;;
73342;Laerm;61578;52.002;5.468;2023-06-10T01:39:59;40.42;37.08;43.80;;
73342;Laerm;61578;52.002;5.468;2023-06-10T01:40:31;40.10;36.94;43.05;;
73342;Laerm;61578;52.002;5.468;2023-06-10T01:41:04;40.31;37.17;43.94;;
73342;Laerm;61578;52.002;5.468;2023-06-10T01:41:37;40.51;37.47;44.03;;
73342;Laerm;61578;52.002;5.468;2023-06-10T01:42:11;40.29;36.80;45.07;;
73342;Laerm;61578;52.002;5.468;2023-06-10T01:42:42;40.20;37.06;43.52;;
73342;Laerm;61578;52.002;5.468;2023-06-10T01:43:13;40.21;37.05;44.43;;
73342;Laerm;61578;52.002;5.468;2023-06-10T01:43:46;40.33;37.17;44.18;;
73342;Laerm;61578;52.002;5.468;2023-06-10T01:44:21;40.37;37.10;44.37;;
73342;Laerm;61578;52.002;5.468;2023-06-10T01:44:53;40.31;37.20;45.21;;
73342;Laerm;61578;52.002;5.468;2023-06-10T01:45:23;40.10;36.56;43.62;;
73342;Laerm;61578;52.002;5.468;2023-06-10T01:45:54;40.21;37.16;43.37;;
73342;Laerm;61578;52.002;5.468;2023-06-10T01:46:25;40.18;37.02;43.68;;
73342;Laerm;61578;52.002;5.468;2023-06-10T01:46:55;40.14;36.75;43.96;;
73342;Laerm;61578;52.002;5.468;2023-06-10T01:47:26;40.14;36.98;44.07;;
73342;Laerm;61578;52.002;5.468;2023-06-10T01:47:57;40.21;36.93;44.18;;
73342;Laerm;61578;52.002;5.468;2023-06-10T01:48:27;40.14;36.93;43.77;;
73342;Laerm;61578;52.002;5.468;2023-06-10T01:48:58;40.40;37.21;43.95;;
73342;Laerm;61578;52.002;5.468;2023-06-10T01:49:28;41.26;37.17;49.07;;
73342;Laerm;61578;52.002;5.468;2023-06-10T01:49:59;40.95;36.90;48.10;;
73342;Laerm;61578;52.002;5.468;2023-06-10T01:50:31;40.31;37.17;47.75;;
73342;Laerm;61578;52.002;5.468;2023-06-10T01:51:01;40.79;37.27;48.55;;
73342;Laerm;61578;52.002;5.468;2023-06-10T01:51:32;40.70;37.67;47.77;;
73342;Laerm;61578;52.002;5.468;2023-06-10T01:52:03;40.52;37.37;48.05;;
73342;Laerm;61578;52.002;5.468;2023-06-10T01:52:34;40.59;37.28;48.75;;
73342;Laerm;61578;52.002;5.468;2023-06-10T01:53:05;40.38;37.41;45.48;;
73342;Laerm;61578;52.002;5.468;2023-06-10T01:53:36;40.47;36.76;48.32;;
73342;Laerm;61578;52.002;5.468;2023-06-10T01:54:06;40.30;37.41;46.75;;
73342;Laerm;61578;52.002;5.468;2023-06-10T01:54:37;45.21;37.32;64.02;;
73342;Laerm;61578;52.002;5.468;2023-06-10T01:55:08;40.37;36.71;46.13;;
73342;Laerm;61578;52.002;5.468;2023-06-10T01:55:39;40.13;36.87;44.85;;
73342;Laerm;61578;52.002;5.468;2023-06-10T01:56:09;40.22;37.39;43.92;;
73342;Laerm;61578;52.002;5.468;2023-06-10T01:56:40;40.32;37.30;43.67;;
73342;Laerm;61578;52.002;5.468;2023-06-10T01:57:11;40.19;37.18;44.56;;
73342;Laerm;61578;52.002;5.468;2023-06-10T01:57:41;40.27;37.22;45.28;;
73342;Laerm;61578;52.002;5.468;2023-06-10T01:58:12;40.56;37.08;44.42;;
73342;Laerm;61578;52.002;5.468;2023-06-10T01:58:43;40.69;37.56;44.15;;
73342;Laerm;61578;52.002;5.468;2023-06-10T01:59:14;40.39;37.17;44.46;;
73342;Laerm;61578;52.002;5.468;2023-06-10T01:59:44;40.15;36.93;43.43;;
73342;Laerm;61578;52.002;5.468;2023-06-10T02:00:16;40.29;36.92;44.31;;
73342;Laerm;61578;52.002;5.468;2023-06-10T02:00:47;40.21;36.72;44.23;;
73342;Laerm;61578;52.002;5.468;2023-06-10T02:01:18;40.30;37.10;43.36;;
73342;Laerm;61578;52.002;5.468;2023-06-10T02:01:48;40.36;37.02;43.52;;
73342;Laerm;61578;52.002;5.468;2023-06-10T02:02:19;40.11;37.24;43.57;;
73342;Laerm;61578;52.002;5.468;2023-06-10T02:02:52;40.18;37.15;43.80;;
73342;Laerm;61578;52.002;5.468;2023-06-10T02:03:23;40.23;36.45;43.98;;
73342;Laerm;61578;52.002;5.468;2023-06-10T02:03:53;40.33;36.93;44.03;;
73342;Laerm;61578;52.002;5.468;2023-06-10T02:04:24;40.20;36.84;43.49;;
73342;Laerm;61578;52.002;5.468;2023-06-10T02:04:54;40.42;36.79;44.21;;
73342;Laerm;61578;52.002;5.468;2023-06-10T02:05:25;40.24;36.87;43.71;;
73342;Laerm;61578;52.002;5.468;2023-06-10T02:05:56;40.21;37.11;43.79;;
73342;Laerm;61578;52.002;5.468;2023-06-10T02:06:26;40.58;37.46;43.99;;
73342;Laerm;61578;52.002;5.468;2023-06-10T02:06:57;40.19;36.96;43.86;;
73342;Laerm;61578;52.002;5.468;2023-06-10T02:07:28;40.39;37.50;44.35;;
73342;Laerm;61578;52.002;5.468;2023-06-10T02:07:58;40.35;37.22;44.37;;
73342;Laerm;61578;52.002;5.468;2023-06-10T02:08:29;40.09;37.17;43.98;;
73342;Laerm;61578;52.002;5.468;2023-06-10T02:09:00;40.22;36.97;43.89;;
73342;Laerm;61578;52.002;5.468;2023-06-10T02:09:31;40.28;37.28;44.06;;
73342;Laerm;61578;52.002;5.468;2023-06-10T02:10:01;40.26;37.18;45.46;;
73342;Laerm;61578;52.002;5.468;2023-06-10T02:10:32;40.12;37.20;44.40;;
73342;Laerm;61578;52.002;5.468;2023-06-10T02:11:03;40.23;36.54;44.05;;
73342;Laerm;61578;52.002;5.468;2023-06-10T02:11:34;40.54;37.21;44.34;;
73342;Laerm;61578;52.002;5.468;2023-06-10T02:12:05;40.62;37.09;44.03;;
73342;Laerm;61578;52.002;5.468;2023-06-10T02:12:37;40.61;37.67;45.14;;
73342;Laerm;61578;52.002;5.468;2023-06-10T02:13:07;40.40;37.56;43.92;;
73342;Laerm;61578;52.002;5.468;2023-06-10T02:13:39;40.32;37.17;43.79;;
73342;Laerm;61578;52.002;5.468;2023-06-10T02:14:09;40.40;37.22;43.84;;
73342;Laerm;61578;52.002;5.468;2023-06-10T02:14:40;40.45;37.63;44.78;;
73342;Laerm;61578;52.002;5.468;2023-06-10T02:15:11;40.15;37.04;44.85;;
73342;Laerm;61578;52.002;5.468;2023-06-10T02:15:41;40.15;36.70;43.20;;
73342;Laerm;61578;52.002;5.468;2023-06-10T02:16:12;40.23;37.22;43.56;;
73342;Laerm;61578;52.002;5.468;2023-06-10T02:16:43;40.55;37.35;44.17;;
73342;Laerm;61578;52.002;5.468;2023-06-10T02:17:15;40.22;36.81;44.60;;
73342;Laerm;61578;52.002;5.468;2023-06-10T02:17:46;40.50;37.73;43.47;;
73342;Laerm;61578;52.002;5.468;2023-06-10T02:18:17;40.74;37.58;46.78;;
73342;Laerm;61578;52.002;5.468;2023-06-10T02:18:51;41.67;37.10;49.65;;
73342;Laerm;61578;52.002;5.468;2023-06-10T02:19:22;42.65;38.05;49.77;;
73342;Laerm;61578;52.002;5.468;2023-06-10T02:19:53;41.20;37.83;48.20;;
73342;Laerm;61578;52.002;5.468;2023-06-10T02:20:24;40.86;37.41;49.74;;
73342;Laerm;61578;52.002;5.468;2023-06-10T02:20:55;40.83;37.31;48.40;;
73342;Laerm;61578;52.002;5.468;2023-06-10T02:21:25;40.76;37.52;49.49;;
73342;Laerm;61578;52.002;5.468;2023-06-10T02:21:56;41.18;37.79;52.33;;
73342;Laerm;61578;52.002;5.468;2023-06-10T02:22:27;43.27;37.67;52.05;;
73342;Laerm;61578;52.002;5.468;2023-06-10T02:22:59;44.18;37.61;53.75;;
73342;Laerm;61578;52.002;5.468;2023-06-10T02:23:29;44.81;36.67;56.26;;
73342;Laerm;61578;52.002;5.468;2023-06-10T02:24:00;44.87;37.91;55.33;;
73342;Laerm;61578;52.002;5.468;2023-06-10T02:24:31;45.72;37.59;57.69;;
73342;Laerm;61578;52.002;5.468;2023-06-10T02:25:03;46.28;37.53;56.23;;
73342;Laerm;61578;52.002;5.468;2023-06-10T02:25:34;45.66;38.04;57.11;;
73342;Laerm;61578;52.002;5.468;2023-06-10T02:26:04;45.68;38.06;56.48;;
73342;Laerm;61578;52.002;5.468;2023-06-10T02:26:35;45.89;37.96;56.26;;
73342;Laerm;61578;52.002;5.468;2023-06-10T02:27:06;45.34;38.29;57.47;;
73342;Laerm;61578;52.002;5.468;2023-06-10T02:27:37;45.17;36.99;56.20;;
73342;Laerm;61578;52.002;5.468;2023-06-10T02:28:07;45.49;37.36;55.73;;
73342;Laerm;61578;52.002;5.468;2023-06-10T02:28:42;52.23;37.43;70.74;;
73342;Laerm;61578;52.002;5.468;2023-06-10T02:29:13;44.71;37.20;54.76;;
73342;Laerm;61578;52.002;5.468;2023-06-10T02:29:44;45.55;37.64;55.37;;
73342;Laerm;61578;52.002;5.468;2023-06-10T02:30:14;44.73;37.95;56.13;;
73342;Laerm;61578;52.002;5.468;2023-06-10T02:30:46;45.68;37.56;56.53;;
73342;Laerm;61578;52.002;5.468;2023-06-10T02:31:17;45.38;37.59;57.45;;
73342;Laerm;61578;52.002;5.468;2023-06-10T02:31:48;45.62;37.12;55.31;;
73342;Laerm;61578;52.002;5.468;2023-06-10T02:32:19;45.16;37.90;55.65;;
73342;Laerm;61578;52.002;5.468;2023-06-10T02:32:49;44.93;37.93;56.05;;
73342;Laerm;61578;52.002;5.468;2023-06-10T02:33:21;43.40;37.86;55.76;;
73342;Laerm;61578;52.002;5.468;2023-06-10T02:33:52;43.12;37.71;53.13;;
73342;Laerm;61578;52.002;5.468;2023-06-10T02:34:23;42.11;36.92;52.74;;
73342;Laerm;61578;52.002;5.468;2023-06-10T02:34:53;42.70;36.75;54.19;;
73342;Laerm;61578;52.002;5.468;2023-06-10T02:35:24;41.43;37.95;51.97;;
73342;Laerm;61578;52.002;5.468;2023-06-10T02:35:55;40.86;38.00;44.45;;
73342;Laerm;61578;52.002;5.468;2023-06-10T02:36:26;40.71;37.54;44.42;;
73342;Laerm;61578;52.002;5.468;2023-06-10T02:36:58;40.64;37.50;44.20;;
73342;Laerm;61578;52.002;5.468;2023-06-10T02:37:29;40.59;37.83;44.10;;
73342;Laerm;61578;52.002;5.468;2023-06-10T02:37:59;40.70;37.81;43.83;;
73342;Laerm;61578;52.002;5.468;2023-06-10T02:38:30;42.22;37.99;50.30;;
73342;Laerm;61578;52.002;5.468;2023-06-10T02:39:01;41.69;37.36;50.71;;
73342;Laerm;61578;52.002;5.468;2023-06-10T02:39:33;40.46;37.15;43.90;;
73342;Laerm;61578;52.002;5.468;2023-06-10T02:40:04;40.70;36.43;44.16;;
73342;Laerm;61578;52.002;5.468;2023-06-10T02:40:36;40.63;36.43;43.95;;
73342;Laerm;61578;52.002;5.468;2023-06-10T02:41:07;40.83;37.86;43.94;;
73342;Laerm;61578;52.002;5.468;2023-06-10T02:41:38;40.71;37.16;44.10;;
73342;Laerm;61578;52.002;5.468;2023-06-10T02:42:09;40.83;37.40;44.17;;
73342;Laerm;61578;52.002;5.468;2023-06-10T02:42:40;40.69;37.61;44.63;;
73342;Laerm;61578;52.002;5.468;2023-06-10T02:43:11;40.64;37.13;43.82;;
73342;Laerm;61578;52.002;5.468;2023-06-10T02:43:42;40.51;36.99;44.76;;
73342;Laerm;61578;52.002;5.468;2023-06-10T02:44:12;40.57;37.66;43.89;;
73342;Laerm;61578;52.002;5.468;2023-06-10T02:44:43;41.76;37.79;49.11;;
73342;Laerm;61578;52.002;5.468;2023-06-10T02:45:14;41.68;37.88;51.40;;
73342;Laerm;61578;52.002;5.468;2023-06-10T02:45:44;41.69;37.28;52.47;;
73342;Laerm;61578;52.002;5.468;2023-06-10T02:46:15;41.89;37.06;51.61;;
73342;Laerm;61578;52.002;5.468;2023-06-10T02:46:46;41.69;37.30;53.37;;
73342;Laerm;61578;52.002;5.468;2023-06-10T02:47:17;41.15;37.72;49.91;;
73342;Laerm;61578;52.002;5.468;2023-06-10T02:47:47;41.27;37.33;49.78;;
73342;Laerm;61578;52.002;5.468;2023-06-10T02:48:18;40.65;37.54;45.78;;
73342;Laerm;61578;52.002;5.468;2023-06-10T02:48:49;40.65;37.70;44.33;;
73342;Laerm;61578;52.002;5.468;2023-06-10T02:49:22;41.05;36.98;49.70;;
73342;Laerm;61578;52.002;5.468;2023-06-10T02:49:52;41.03;37.63;49.53;;
73342;Laerm;61578;52.002;5.468;2023-06-10T02:50:23;41.23;37.88;48.52;;
73342;Laerm;61578;52.002;5.468;2023-06-10T02:50:54;41.41;37.79;50.89;;
73342;Laerm;61578;52.002;5.468;2023-06-10T02:51:26;43.77;37.84;53.73;;
73342;Laerm;61578;52.002;5.468;2023-06-10T02:51:56;43.86;37.71;54.45;;
73342;Laerm;61578;52.002;5.468;2023-06-10T02:52:27;44.38;37.68;56.58;;
73342;Laerm;61578;52.002;5.468;2023-06-10T02:52:59;44.77;37.86;54.87;;
73342;Laerm;61578;52.002;5.468;2023-06-10T02:53:29;47.19;37.47;62.64;;
73342;Laerm;61578;52.002;5.468;2023-06-10T02:54:00;45.14;38.03;61.44;;
73342;Laerm;61578;52.002;5.468;2023-06-10T02:54:31;41.30;37.38;56.10;;
73342;Laerm;61578;52.002;5.468;2023-06-10T02:55:02;40.54;37.09;44.00;;
73342;Laerm;61578;52.002;5.468;2023-06-10T02:55:32;40.51;37.57;44.12;;
73342;Laerm;61578;52.002;5.468;2023-06-10T02:56:04;40.71;37.57;44.52;;
73342;Laerm;61578;52.002;5.468;2023-06-10T02:56:34;40.44;37.44;44.34;;
73342;Laerm;61578;52.002;5.468;2023-06-10T02:57:06;40.70;37.82;44.42;;
73342;Laerm;61578;52.002;5.468;2023-06-10T02:57:38;40.52;36.91;44.62;;
73342;Laerm;61578;52.002;5.468;2023-06-10T02:58:09;40.52;37.49;44.09;;
73342;Laerm;61578;52.002;5.468;2023-06-10T02:58:39;40.81;37.73;44.85;;
73342;Laerm;61578;52.002;5.468;2023-06-10T02:59:10;40.59;37.62;44.89;;
73342;Laerm;61578;52.002;5.468;2023-06-10T02:59:41;40.51;37.45;44.10;;
73342;Laerm;61578;52.002;5.468;2023-06-10T03:00:12;40.50;37.09;44.26;;
73342;Laerm;61578;52.002;5.468;2023-06-10T03:00:44;40.64;37.26;46.50;;
73342;Laerm;61578;52.002;5.468;2023-06-10T03:01:15;40.56;37.02;44.33;;